Nearby METAR Reports

 

KEDC - Austin Exec, Texas, USA
Distance from station: SSE 10mi, 17km
Updated: Tue, 31-Mar-2020 1:15am CDT
Fog, Overcast
Fog, Overcast
 Wind from SW
Wind: SW 5 mph , 7 km/h
Temperature: 68°F , 20°C
Dew Point: 68°F , 20°C
Humidity: 100%
Barometer: 29.89 inHg , 1012.2 hPa
Summary: Fog
Clouds: Overcast
Visibility: less than 1/4 mile , 0.4 km
Cloud details: Overcast 200 ft
2020/03/31 06:15 KEDC 310615Z AUTO 23004KT M1/4SM FG OVC002 20/20 A2989 RMK AO2
KGTU - Georgetown, Texas, USA
Distance from station: NNW 11mi, 17km
Updated: Tue, 31-Mar-2020 1:34am CDT
Fog, Overcast
Fog, Overcast
 Wind from N
Wind: N 3 mph , 6 km/h
Temperature: 61°F , 16°C
Dew Point: 61°F , 16°C
Humidity: 100%
Barometer: 29.92 inHg , 1013.2 hPa
Summary: Fog
Clouds: Overcast
Visibility: 1/2 mile , 0.8 km
Cloud details: Overcast 200 ft
2020/03/31 06:34 KGTU 310634Z AUTO 01003KT 1/2SM FG OVC002 16/16 A2992 RMK AO2
 
KATT - Austin/Mabry, Texas, USA
Distance from station: SSW 18mi, 30km
Updated: Tue, 31-Mar-2020 1:17am CDT
Mist, Partly cloudy
Mist, Partly cloudy
 Wind from NW
Wind: NW 3 mph , 6 km/h
Temperature: 66°F , 19°C
Dew Point: 64°F , 18°C
Humidity: 94%
Barometer: 29.90 inHg , 1012.5 hPa
Summary: Mist
Clouds: Partly cloudy
Visibility: 6 miles , 10 km
Cloud details: Partly cloudy 200 ft
2020/03/31 06:17 KATT 310617Z AUTO 31003KT 6SM BR SCT002 19/18 A2990 RMK AO2 T01890178
KRYW - Lago Vista, Texas, USA
Distance from station: W 22mi, 35km
Updated: Tue, 31-Mar-2020 1:15am CDT
Mist, Clear
Mist, Clear
 Wind from W
Wind: W 6 mph , 9 km/h
Temperature: 64°F , 18°C
Dew Point: 64°F , 18°C
Humidity: 100%
Barometer: 29.91 inHg , 1012.9 hPa
Summary: Mist
Clouds: Clear
Visibility: 3 miles , 5 km
2020/03/31 06:15 KRYW 310615Z AUTO 27005KT 3SM BR CLR 18/18 A2991 RMK AO2 T01810180
 
KAUS - Austin, Texas, USA
Distance from station: S 25mi, 41km
Updated: Tue, 31-Mar-2020 1:10am CDT
Fog, Overcast
Fog, Overcast
 Wind from SW
Wind: SW 5 mph , 7 km/h
Temperature: 70°F , 21°C
Dew Point: 68°F , 20°C
Humidity: 94%
Barometer: 29.89 inHg , 1012.2 hPa
Summary: Fog
Clouds: Overcast
Visibility: 1/4 mile , 0.4 km
Cloud details: Overcast 100 ft
2020/03/31 06:10 KAUS 310610Z 23004KT 1/4SM R17L/1600V2200FT FG VV001 21/20 A2989 RMK AO2 T02060200 $
KILE - Killeen Muni, Texas, USA
Distance from station: N 36mi, 58km
Updated: Tue, 31-Mar-2020 1:25am CDT
Mist, Overcast
Mist, Overcast
 Wind from NNE
Wind: NNE 13 mph , 20 km/h
Temperature: 61°F , 16°C
Dew Point: 61°F , 16°C
Humidity: 100%
Barometer: 29.92 inHg , 1013.2 hPa
Summary: Mist
Clouds: Overcast
Visibility: 1 mile , 2 km
Cloud details: Overcast 200 ft
2020/03/31 06:25 KILE 310625Z AUTO 02011KT 1SM BR OVC002 16/16 A2992 RMK AO2
 
KGRK - Gray/Ft Hood, Texas, USA
Distance from station: NNW 38mi, 62km
Updated: Tue, 31-Mar-2020 1:28am CDT
Light drizzle, Fog, Overcast
Light drizzle, Fog, Overcast
 Wind from N
Wind: N 9 mph , 15 km/h
Temperature: 61°F , 16°C
Dew Point: 61°F , 16°C
Humidity: 100%
Barometer: 29.91 inHg , 1012.9 hPa
Summary: Light drizzle, Fog
Clouds: Overcast
Visibility: 1/2 mile , 0.8 km
Cloud details: Overcast 100 ft
2020/03/31 06:28 KGRK 310628Z 36008KT 1/2SM R15/2400FT -DZ FG VV001 16/16 A2991 RMK AO2A TWR VIS 1/8 DZB28 SLP125
KBMQ - Burnet, Texas, USA
Distance from station: WNW 39mi, 64km
Updated: Tue, 31-Mar-2020 1:15am CDT
Partly cloudy
Partly cloudy
 Wind from WNW
Wind: WNW 13 mph , 20 km/h
Temperature: 63°F , 17°C
Dew Point: 63°F , 17°C
Humidity: 100%
Barometer: 29.94 inHg , 1013.9 hPa
Clouds: Partly cloudy
Visibility: 10 miles , 16 km
Cloud details: Partly cloudy 200 ft
2020/03/31 06:15 KBMQ 310615Z AUTO 29011KT 10SM SCT002 17/17 A2994 RMK AO2 T01720167
 
KHLR - Ft Hood/Killeen, Texas, USA
Distance from station: N 41mi, 66km
Updated: Tue, 31-Mar-2020 1:27am CDT
Mist, Overcast
Mist, Overcast
 Wind from NNE
Wind: NNE 12 mph , 19 km/h
Temperature: 61°F , 16°C
Dew Point: 59°F , 15°C
Humidity: 94%
Barometer: 29.92 inHg , 1013.2 hPa
Summary: Mist
Clouds: Overcast
Visibility: 2 3/4 miles , 4.4 km
Cloud details: Overcast 200 ft
2020/03/31 06:27 KHLR 310627Z AUTO 03010KT 2 3/4SM BR OVC002 16/15 A2992 RMK AO2 VIS 1 1/4V2 3/4 DZB17E27 SLP127
KTPL - Temple/Miller, Texas, USA
Distance from station: NNE 42mi, 68km
Updated: Tue, 31-Mar-2020 1:23am CDT
Mist, Overcast
Mist, Overcast
 Wind from N
Wind: N 12 mph , 19 km/h
Temperature: 57°F , 14°C
Barometer: 29.93 inHg , 1013.5 hPa
Summary: Mist
Clouds: Overcast
Visibility: 3 miles , 5 km
Cloud details: Overcast 200 ft
2020/03/31 06:23 KTPL 310623Z AUTO 35010KT 3SM BR OVC002 14/ A2993 RMK AO2
 
KT35 - Cameron, Texas, USA
Distance from station: ENE 45mi, 72km
Updated: Tue, 31-Mar-2020 1:15am CDT
Mist, Overcast
Mist, Overcast
 Wind from N
Wind: N 6 mph , 9 km/h
Temperature: 63°F , 17°C
Dew Point: 61°F , 16°C
Humidity: 94%
Barometer: 29.90 inHg , 1012.5 hPa
Summary: Mist
Clouds: Overcast
Visibility: 2 miles , 3 km
Cloud details: Overcast 300 ft
2020/03/31 06:15 KT35 310615Z AUTO 01005KT 2SM BR OVC003 17/16 A2990 RMK AO2 T01670164
KDZB - Horseshoe Bay, Texas, USA
Distance from station: W 45mi, 73km
Updated: Tue, 31-Mar-2020 1:20am CDT
Clear
Clear
 Wind from calm
Wind: Calm
Temperature: 63°F , 17°C
Dew Point: 63°F , 17°C
Humidity: 100%
Barometer: 29.93 inHg , 1013.5 hPa
Clouds: Clear
Visibility: 10 miles , 16 km
2020/03/31 06:20 KDZB 310620Z AUTO 00000KT 10SM CLR 17/17 A2993 RMK AO2
 
KGYB - Giddings-Lee, Texas, USA
Distance from station: SE 45mi, 73km
Updated: Tue, 31-Mar-2020 1:15am CDT
Mostly cloudy
Mostly cloudy
 Wind from SSW
Wind: SSW 6 mph , 9 km/h
Temperature: 70°F , 21°C
Dew Point: 68°F , 20°C
Humidity: 94%
Barometer: 29.88 inHg , 1011.9 hPa
Clouds: Mostly cloudy
Visibility: 7 miles , 11 km
Cloud details: Mostly cloudy 2500 ft
2020/03/31 06:15 KGYB 310615Z AUTO 21005KT 7SM BKN025 21/20 A2988 RMK AO2 T02080197
KHYI - San Marcos, Texas, USA
Distance from station: SSW 48mi, 78km
Updated: Tue, 31-Mar-2020 12:56am CDT
Fog, Overcast
Fog, Overcast
 Wind from calm
Wind: Calm
Temperature: 66°F , 19°C
Dew Point: 66°F , 19°C
Humidity: 100%
Barometer: 29.90 inHg , 1012.5 hPa
Summary: Fog
Clouds: Overcast
Visibility: 1/4 mile , 0.4 km
Cloud details: Overcast 100 ft
2020/03/31 05:56 KHYI 310556Z AUTO 00000KT 1/4SM FG OVC001 19/19 A2990 RMK AO2 SLP118 T01890189 10217 20189 402220178 53001
 
KLZZ - Lampasas, Texas, USA
Distance from station: NW 52mi, 84km
Updated: Tue, 31-Mar-2020 1:15am CDT
Clear
Clear
 Wind from N
Wind: N 5 mph , 7 km/h
Temperature: 63°F , 17°C
Dew Point: 61°F , 16°C
Humidity: 94%
Barometer: 29.92 inHg , 1013.2 hPa
Clouds: Clear
Visibility: 10 miles , 16 km
2020/03/31 06:15 KLZZ 310615Z AUTO 35004KT 10SM CLR 17/16 A2992 RMK AO2 T01720156
KRWV - Caldwell, Texas, USA
Distance from station: E 54mi, 87km
Updated: Tue, 31-Mar-2020 1:10am CDT
Overcast
Overcast
 Wind from W
Wind: W 3 mph , 6 km/h
Temperature: 72°F , 22°C
Dew Point: 72°F , 22°C
Humidity: 100%
Barometer: 29.88 inHg , 1011.9 hPa
Clouds: Overcast
Visibility: 10 miles , 16 km
Cloud details: Overcast 2400 ft
2020/03/31 06:10 KRWV 310610Z AUTO 26003KT 10SM OVC024 22/22 A2988 RMK AO2 T02170216
 
K3T5 - La Grange, Texas, USA
Distance from station: SE 59mi, 95km
Updated: Tue, 31-Mar-2020 1:15am CDT
Clear
Clear
 Wind from SSW
Wind: SSW 3 mph , 6 km/h
Barometer: 29.87 inHg , 1011.5 hPa
Clouds: Clear
Visibility: 7 miles , 11 km
2020/03/31 06:15 K3T5 310615Z AUTO 21003KT 7SM CLR A2987 RMK AO2
KGOP - Gatesville, Texas, USA
Distance from station: N 61mi, 99km
Updated: Tue, 31-Mar-2020 1:15am CDT
Mist, Overcast
Mist, Overcast
 Wind from NNE
Wind: NNE 6 mph , 9 km/h
Temperature: 59°F , 15°C
Dew Point: 59°F , 15°C
Humidity: 100%
Barometer: 29.95 inHg , 1014.2 hPa
Summary: Mist
Clouds: Overcast
Visibility: 2 1/2 miles , 4 km
Cloud details: Overcast 200 ft
2020/03/31 06:15 KGOP 310615Z AUTO 02005KT 2 1/2SM BR OVC002 15/15 A2995 RMK AO2
 
KLHB - Hearne Muni, Texas, USA
Distance from station: ENE 63mi, 101km
Updated: Tue, 31-Mar-2020 1:15am CDT
Overcast
Overcast
 Wind from NNW
Wind: NNW 7 mph , 11 km/h
Temperature: 64°F , 18°C
Dew Point: 63°F , 17°C
Humidity: 94%
Barometer: 29.90 inHg , 1012.5 hPa
Clouds: Overcast
Visibility: 7 miles , 11 km
Cloud details: Overcast 700 ft
2020/03/31 06:15 KLHB 310615Z AUTO 33006KT 7SM OVC007 18/17 A2990 RMK AO2 T01780171
KBAZ - New Braunfels, Texas, USA
Distance from station: SSW 63mi, 102km
Updated: Tue, 31-Mar-2020 1:33am CDT
Mist, Mostly cloudy
Mist, Mostly cloudy
 Wind from WNW
Wind: WNW 6 mph , 9 km/h
Temperature: 66°F , 19°C
Dew Point: 64°F , 18°C
Humidity: 94%
Barometer: 29.90 inHg , 1012.5 hPa
Summary: Mist
Clouds: Mostly cloudy
Visibility: 2 miles , 3 km
Cloud details: Mostly cloudy 600 ft
2020/03/31 06:33 KBAZ 310633Z AUTO 29005KT 2SM BR BKN006 19/18 A2990 RMK AO2 T01940183